createdAt,value
2018-07-25T00:03:01.344Z,46.30
2018-07-25T00:08:04.596Z,46.30
2018-07-25T00:13:07.945Z,47.00
2018-07-25T00:18:11.591Z,46.30
2018-07-25T00:23:14.814Z,46.40
2018-07-25T00:28:18.126Z,46.40
2018-07-25T00:33:21.389Z,46.50
2018-07-25T00:38:24.724Z,46.50
2018-07-25T00:43:28.039Z,46.70
2018-07-25T00:48:31.294Z,46.70
2018-07-25T00:53:34.615Z,46.80
2018-07-25T00:58:37.898Z,46.80
2018-07-25T01:03:41.176Z,46.70
2018-07-25T01:08:44.431Z,46.60
2018-07-25T01:13:47.640Z,46.60
2018-07-25T01:18:50.830Z,46.50
2018-07-25T01:23:53.991Z,46.50
2018-07-25T01:28:57.172Z,46.50
2018-07-25T01:34:00.365Z,46.50
2018-07-25T01:39:03.685Z,46.50
2018-07-25T01:44:07.186Z,46.40
2018-07-25T01:49:10.604Z,46.50
2018-07-25T01:54:13.768Z,46.50
2018-07-25T01:59:16.998Z,46.60
2018-07-25T02:04:20.223Z,46.50
2018-07-25T02:09:23.489Z,46.50
2018-07-25T02:14:26.930Z,46.50
2018-07-25T02:19:30.187Z,46.50
2018-07-25T02:24:33.433Z,46.50
2018-07-25T02:29:36.621Z,46.50
2018-07-25T02:34:39.775Z,46.50
2018-07-25T02:39:44.023Z,46.50
2018-07-25T02:44:47.311Z,46.50
2018-07-25T02:49:50.493Z,46.40
2018-07-25T02:54:53.692Z,46.40
2018-07-25T02:59:56.873Z,46.40
2018-07-25T03:05:00.099Z,46.40
2018-07-25T03:10:03.255Z,46.40
2018-07-25T03:15:06.563Z,46.30
2018-07-25T03:20:09.711Z,46.30
2018-07-25T03:25:12.863Z,46.40
2018-07-25T03:30:16.321Z,46.50
2018-07-25T03:35:19.492Z,46.50
2018-07-25T03:40:22.682Z,46.40
2018-07-25T03:45:26.141Z,46.50
2018-07-25T03:50:29.453Z,46.60
2018-07-25T03:55:32.655Z,46.60
2018-07-25T04:00:35.998Z,46.60
2018-07-25T04:05:39.289Z,46.60
2018-07-25T04:10:46.773Z,46.70
2018-07-25T04:15:49.975Z,46.60
2018-07-25T04:20:53.180Z,46.70
2018-07-25T04:25:56.299Z,46.80
2018-07-25T04:30:59.523Z,46.70
2018-07-25T04:36:02.782Z,46.80
2018-07-25T04:41:06.093Z,46.60
2018-07-25T04:46:09.393Z,46.70
2018-07-25T04:51:12.695Z,46.80
2018-07-25T04:56:15.927Z,46.80
2018-07-25T05:01:19.118Z,46.80
2018-07-25T05:06:22.306Z,46.80
2018-07-25T05:11:25.729Z,46.70
2018-07-25T05:16:28.917Z,46.80
2018-07-25T05:21:32.180Z,46.70
2018-07-25T05:26:35.383Z,46.60
2018-07-25T05:31:38.718Z,46.40
2018-07-25T05:36:41.921Z,46.20
2018-07-25T05:41:45.093Z,46.10
2018-07-25T05:46:48.912Z,46.00
2018-07-25T05:51:52.168Z,45.80
2018-07-25T05:56:55.356Z,45.90
2018-07-25T06:01:58.616Z,46.00
2018-07-25T06:07:01.803Z,46.10
2018-07-25T06:12:05.002Z,46.00
2018-07-25T06:17:08.227Z,46.10
2018-07-25T06:22:11.635Z,46.00
2018-07-25T06:27:14.895Z,45.90
2018-07-25T06:32:18.911Z,45.70
2018-07-25T06:37:22.110Z,45.80
2018-07-25T06:42:25.333Z,45.90
2018-07-25T06:47:28.507Z,46.00
2018-07-25T06:52:31.717Z,45.70
2018-07-25T06:57:35.250Z,45.70
2018-07-25T07:02:38.517Z,45.60
2018-07-25T07:07:41.765Z,45.50
2018-07-25T07:12:45.217Z,45.70
2018-07-25T07:17:48.516Z,45.40
2018-07-25T07:22:51.899Z,44.50
2018-07-25T07:27:55.140Z,43.80
2018-07-25T07:32:58.582Z,43.80
2018-07-25T07:38:01.792Z,43.70
2018-07-25T07:43:05.376Z,43.30
2018-07-25T07:48:08.550Z,42.90
2018-07-25T07:53:12.006Z,43.20
2018-07-25T07:58:15.536Z,42.80
2018-07-25T08:03:18.762Z,43.70
2018-07-25T08:08:22.237Z,43.90
2018-07-25T08:13:25.515Z,44.30
2018-07-25T08:18:28.741Z,43.70
2018-07-25T08:23:31.978Z,43.80
2018-07-25T08:28:35.152Z,44.30
2018-07-25T08:33:38.380Z,44.00
2018-07-25T08:38:42.720Z,43.60
2018-07-25T08:43:45.941Z,43.40
2018-07-25T08:48:49.125Z,43.30
2018-07-25T08:53:52.308Z,43.10
2018-07-25T08:58:55.490Z,43.30
2018-07-25T09:03:58.820Z,42.80
2018-07-25T09:09:02.177Z,43.20
2018-07-25T09:14:06.432Z,43.20
2018-07-25T09:19:09.606Z,43.10
2018-07-25T09:24:12.872Z,42.70
2018-07-25T09:29:16.112Z,43.10
2018-07-25T09:34:19.466Z,43.20
2018-07-25T09:39:23.178Z,43.10
2018-07-25T09:44:26.345Z,42.80
2018-07-25T09:49:29.553Z,42.30
2018-07-25T09:54:32.966Z,43.10
2018-07-25T09:59:36.274Z,43.70
2018-07-25T10:04:39.536Z,44.30
2018-07-25T10:09:43.010Z,44.00
2018-07-25T10:14:46.875Z,43.90
2018-07-25T10:19:50.086Z,43.90
2018-07-25T10:24:53.953Z,43.80
2018-07-25T10:29:57.172Z,43.60
2018-07-25T10:35:00.586Z,43.80
2018-07-25T10:40:04.451Z,43.90
2018-07-25T10:45:09.389Z,43.80
2018-07-25T10:50:12.675Z,44.30
2018-07-25T10:55:16.889Z,43.90
2018-07-25T11:00:20.162Z,44.00
2018-07-25T11:05:23.505Z,44.10
2018-07-25T11:10:26.845Z,44.20
2018-07-25T11:15:30.145Z,44.20
2018-07-25T11:20:33.440Z,44.10
2018-07-25T11:25:37.548Z,44.10
2018-07-25T11:30:40.972Z,44.10
2018-07-25T11:35:44.203Z,44.20
2018-07-25T11:40:47.692Z,44.20
2018-07-25T11:45:50.989Z,44.20
2018-07-25T11:50:54.812Z,44.20
2018-07-25T11:55:58.174Z,44.20
2018-07-25T12:01:01.387Z,44.10
2018-07-25T12:06:04.585Z,44.00
2018-07-25T12:11:08.322Z,44.10
2018-07-25T12:16:11.569Z,44.50
2018-07-25T12:21:15.103Z,44.10
